F/V Alcor — FMLY — position and weather

sailwx.info

Track history (hours):
 
Tides and Currents Weather Stations Pressure Air Temp Water Temp Dewpoint Dewpoint Depression Visibility Wind Speed Wind Dir Waves Ship Positions

F/V Alcor

Last reported at 2018-Feb-17 20:52 UTC. Time now 2018-Feb-17 23:53 UTC.
Position N 47°49' W 004°23'.

Length 18 m.

MMSI: 228263900.

Date/timePositionNaut miles runAvg speedWind from/ knotsBaromVisibWave heightAir tempDewpointWater temp
2018-Feb-17 20:52N 47°49' W 004°23'0 0.0
2018-Feb-17 20:29N 47°49' W 004°23'0 0.0
2018-Feb-17 19:57N 47°49' W 004°23'0 0.0
2018-Feb-17 19:29N 47°49' W 004°23'0 0.0
2018-Feb-17 19:00N 47°49' W 004°23'0 0.0
2018-Feb-17 18:28N 47°49' W 004°23'0 0.0
2018-Feb-17 18:00N 47°49' W 004°23'0 0.0
2018-Feb-17 17:30N 47°49' W 004°23'0 0.0
2018-Feb-17 16:52N 47°49' W 004°23'0 0.0
2018-Feb-17 16:30N 47°49' W 004°23'0 0.0
2018-Feb-17 16:01N 47°49' W 004°23'0 0.0
2018-Feb-17 15:29N 47°49' W 004°23'0 0.0
2018-Feb-17 15:00N 47°49' W 004°23'0 0.0
2018-Feb-17 14:24N 47°49' W 004°23'0 0.0
2018-Feb-17 13:59N 47°49' W 004°23'0 0.0
2018-Feb-17 13:26N 47°49' W 004°23'0 0.0
2018-Feb-17 13:00N 47°49' W 004°23'0 0.0
2018-Feb-17 12:30N 47°49' W 004°23'0 0.0
2018-Feb-17 11:53N 47°49' W 004°23'0 0.0
2018-Feb-17 11:30N 47°49' W 004°23'0 0.0
2018-Feb-17 10:59N 47°49' W 004°23'0 0.0
2018-Feb-17 10:28N 47°49' W 004°23'0 0.0
2018-Feb-17 10:00N 47°49' W 004°23'0 0.0
2018-Feb-17 09:28N 47°49' W 004°23'0 0.0
2018-Feb-17 08:57N 47°49' W 004°23'0 0.0
2018-Feb-17 08:28N 47°49' W 004°23'0 0.0
2018-Feb-17 08:00N 47°49' W 004°23'0 0.0
2018-Feb-17 07:30N 47°49' W 004°23'0 0.0
2018-Feb-17 07:00N 47°49' W 004°23'0 0.0
2018-Feb-17 06:27N 47°49' W 004°23'0 0.0
2018-Feb-17 06:00N 47°49' W 004°23'0 0.0
2018-Feb-17 05:30N 47°49' W 004°23'0 0.0
2018-Feb-17 05:00N 47°49' W 004°23'0 0.0
2018-Feb-17 04:30N 47°49' W 004°23'0 0.0
2018-Feb-17 03:58N 47°49' W 004°23'0 0.0
2018-Feb-17 03:30N 47°49' W 004°23'0 0.0
2018-Feb-17 02:57N 47°49' W 004°23'0 0.0
2018-Feb-17 02:30N 47°49' W 004°23'0 0.0
2018-Feb-17 01:59N 47°49' W 004°23'0 0.0
2018-Feb-17 01:30N 47°49' W 004°23'0 0.0
2018-Feb-17 01:00N 47°49' W 004°23'0 0.0
2018-Feb-17 00:28N 47°49' W 004°23'0 0.0
2018-Feb-16 23:57N 47°49' W 004°23'0 0.0
2018-Feb-16 23:26N 47°49' W 004°23'0 0.0
2018-Feb-16 23:00N 47°49' W 004°23'0 0.0
2018-Feb-16 22:13N 47°49' W 004°23'0 0.0
2018-Feb-16 21:58N 47°49' W 004°23'0 0.0
2018-Feb-16 21:26N 47°49' W 004°23'0 0.0
2018-Feb-16 21:00N 47°49' W 004°23'1 1.4
2018-Feb-16 20:30N 47°49' W 004°24'5 8.6
2018-Feb-16 19:57N 47°44' W 004°23'4 9.4
2018-Feb-16 19:30N 47°40' W 004°22'5 9.3
2018-Feb-16 18:56N 47°34' W 004°20'4 8.5
2018-Feb-16 18:27N 47°31' W 004°18'4 3.9
2018-Feb-16 17:33N 47°27' W 004°17'0 0.2
2018-Feb-16 17:30N 47°27' W 004°17'0 0.3
2018-Feb-16 16:20N 47°27' W 004°18'1 0.2
2018-Feb-16 10:21N 47°27' W 004°16'0 0.1
2018-Feb-16 09:50N 47°27' W 004°16'0 0.1
2018-Feb-16 08:55N 47°27' W 004°16'1 0.6
2018-Feb-16 07:57N 47°27' W 004°16'0 0.4
2018-Feb-16 06:59N 47°27' W 004°15'11 3.5
2018-Feb-16 03:56N 47°37' W 004°20'4 8.3
2018-Feb-16 03:29N 47°41' W 004°22'5 8.2
2018-Feb-16 02:55N 47°45' W 004°24'3 8.0
2018-Feb-16 02:29N 47°48' W 004°24'1 1.9
2018-Feb-16 02:00N 47°49' W 004°23'0 0.0
2018-Feb-16 01:29N 47°49' W 004°23'0 0.0
2018-Feb-16 01:00N 47°49' W 004°23'0 0.0
2018-Feb-16 00:28N 47°49' W 004°23'0 0.0
2018-Feb-15 23:59N 47°49' W 004°23'0 0.0
2018-Feb-15 23:25N 47°49' W 004°23'0 0.0
2018-Feb-15 23:00N 47°49' W 004°23'0 0.0
2018-Feb-15 22:30N 47°49' W 004°23'0 0.0
2018-Feb-15 22:00N 47°49' W 004°23'0 0.0
2018-Feb-15 21:30N 47°49' W 004°23'0 0.0
2018-Feb-15 20:57N 47°49' W 004°23'0 0.0
2018-Feb-15 20:30N 47°49' W 004°23'0 0.0
2018-Feb-15 20:00N 47°49' W 004°23'0 0.0
2018-Feb-15 19:30N 47°49' W 004°23'0 0.0
2018-Feb-15 19:00N 47°49' W 004°23'0 0.0
2018-Feb-15 18:30N 47°49' W 004°23'0 0.0
2018-Feb-15 17:57N 47°49' W 004°23'0 0.0
2018-Feb-15 17:30N 47°49' W 004°23'0 0.0
2018-Feb-15 16:57N 47°49' W 004°23'0 0.0
2018-Feb-15 16:30N 47°49' W 004°23'0 0.0
2018-Feb-15 15:58N 47°49' W 004°23'0 0.3
2018-Feb-15 15:23N 47°49' W 004°23'2 6.2
2018-Feb-15 15:00N 47°47' W 004°24'4 8.5
2018-Feb-15 14:28N 47°42' W 004°23'4 8.5
2018-Feb-15 13:57N 47°38' W 004°22'6 8.5
2018-Feb-15 13:14N 47°32' W 004°20'5 0.9
2018-Feb-15 07:19N 47°27' W 004°16'11 3.1
2018-Feb-15 03:46N 47°38' W 004°19'4 8.5
2018-Feb-15 03:18N 47°42' W 004°21'4 8.4
2018-Feb-15 02:52N 47°45' W 004°23'3 8.3
2018-Feb-15 02:30N 47°48' W 004°24'1 1.9
2018-Feb-15 02:00N 47°49' W 004°23'0 0.0
2018-Feb-15 01:30N 47°49' W 004°23'0 0.0
2018-Feb-15 00:58N 47°49' W 004°23'0 0.0
2018-Feb-15 00:28N 47°49' W 004°23'0 0.0
2018-Feb-15 00:00N 47°49' W 004°23'0 0.0
2018-Feb-14 23:29N 47°49' W 004°23'0 0.0
2018-Feb-14 22:58N 47°49' W 004°23'0 0.0
2018-Feb-14 22:30N 47°49' W 004°23'0 0.0
2018-Feb-14 21:57N 47°49' W 004°23'0 0.0
2018-Feb-14 21:23N 47°49' W 004°23'0 0.0
2018-Feb-14 21:00N 47°49' W 004°23'0 0.0
2018-Feb-14 20:29N 47°49' W 004°23'0 0.0
2018-Feb-14 19:59N 47°49' W 004°23'0 0.0
2018-Feb-14 19:25N 47°49' W 004°23'0 0.0
2018-Feb-14 19:00N 47°49' W 004°23'0 0.0
2018-Feb-14 18:20N 47°49' W 004°23'0 0.0
2018-Feb-14 17:58N 47°49' W 004°23'0 0.0
2018-Feb-14 17:30N 47°49' W 004°23'0 0.0
2018-Feb-14 17:00N 47°49' W 004°23'0 0.0
2018-Feb-14 16:24N 47°49' W 004°23'0 0.5
2018-Feb-14 15:59N 47°49' W 004°23'3 4.3
2018-Feb-14 15:23N 47°46' W 004°24'4 9.3
2018-Feb-14 14:55N 47°42' W 004°21'4 9.4
2018-Feb-14 14:26N 47°38' W 004°19'5 0.5
2018-Feb-14 02:52N 47°43' W 004°22'3 8.3
2018-Feb-14 02:29N 47°46' W 004°24'3 4.7
2018-Feb-14 01:54N 47°49' W 004°23'0 0.0
2018-Feb-14 01:28N 47°49' W 004°23'0 0.0
2018-Feb-14 01:00N 47°49' W 004°23'0 0.0
2018-Feb-14 00:30N 47°49' W 004°23'0 0.0
2018-Feb-13 23:59N 47°49' W 004°23'0 0.0
2018-Feb-13 23:25N 47°49' W 004°23'0 0.0
2018-Feb-13 22:58N 47°49' W 004°23'0 0.0
2018-Feb-13 22:29N 47°49' W 004°23'0 0.0
2018-Feb-13 21:58N 47°49' W 004°23'0 0.0
2018-Feb-13 21:29N 47°49' W 004°23'0 0.0
2018-Feb-13 20:59N 47°49' W 004°23'0 0.0
2018-Feb-13 20:30N 47°49' W 004°23'0 0.0
2018-Feb-13 19:57N 47°49' W 004°23'0 0.0
2018-Feb-13 19:25N 47°49' W 004°23'0 0.0
2018-Feb-13 18:54N 47°49' W 004°23'0 0.0
2018-Feb-13 18:30N 47°49' W 004°23'0 0.0
2018-Feb-13 18:00N 47°49' W 004°23'3 5.2
2018-Feb-13 17:29N 47°46' W 004°23'4 8.3
2018-Feb-13 16:59N 47°42' W 004°22'5 8.3
2018-Feb-13 16:24N 47°37' W 004°20'4 1.0
2018-Feb-13 12:43N 47°41' W 004°22'4 8.4
2018-Feb-13 12:17N 47°44' W 004°24'3 8.2
2018-Feb-13 11:56N 47°47' W 004°24'2 4.0
2018-Feb-13 11:25N 47°49' W 004°23'0 0.0
2018-Feb-13 11:00N 47°49' W 004°23'0 0.0
2018-Feb-13 10:18N 47°49' W 004°23'0 0.0
2018-Feb-13 10:00N 47°49' W 004°23'0 0.0
2018-Feb-13 09:17N 47°49' W 004°23'0 0.0
2018-Feb-13 08:56N 47°49' W 004°23'0 0.0
2018-Feb-13 08:29N 47°49' W 004°23'0 0.0
2018-Feb-13 07:51N 47°49' W 004°23'0 0.0
2018-Feb-13 07:22N 47°49' W 004°23'0 0.0
2018-Feb-13 06:58N 47°49' W 004°23'0 0.0
2018-Feb-13 06:29N 47°49' W 004°23'0 0.0
2018-Feb-13 06:00N 47°49' W 004°23'0 0.0
2018-Feb-13 05:28N 47°49' W 004°23'0 0.0
2018-Feb-13 04:57N 47°49' W 004°23'0 0.0
2018-Feb-13 03:49N 47°49' W 004°23'0 0.0
2018-Feb-13 03:29N 47°49' W 004°23'0 0.0
2018-Feb-13 03:00N 47°49' W 004°23'0 0.0
2018-Feb-13 02:26N 47°49' W 004°23'0 0.0
2018-Feb-13 01:56N 47°49' W 004°23'0 0.0
2018-Feb-13 01:30N 47°49' W 004°23'0 0.0
2018-Feb-13 00:57N 47°49' W 004°23'0 0.0
2018-Feb-13 00:28N 47°49' W 004°23'0 0.0
2018-Feb-12 23:55N 47°49' W 004°23'0 0.0
2018-Feb-12 23:30N 47°49' W 004°23'0 0.0
2018-Feb-12 22:52N 47°49' W 004°23'0 0.0
2018-Feb-12 22:30N 47°49' W 004°23'0 0.0
2018-Feb-12 21:54N 47°49' W 004°23'0 0.0
2018-Feb-12 21:30N 47°49' W 004°23'0 0.0
2018-Feb-12 19:48N 47°49' W 004°23'0 0.0
2018-Feb-12 19:28N 47°49' W 004°23'0 0.0
2018-Feb-12 18:55N 47°49' W 004°23'0 0.0
2018-Feb-12 18:18N 47°49' W 004°23'0 0.0
2018-Feb-12 17:58N 47°49' W 004°23'0 0.0
2018-Feb-12 17:26N 47°49' W 004°23'0 0.0
2018-Feb-12 16:57N 47°49' W 004°23'0 0.1
2018-Feb-12 16:27N 47°49' W 004°23'0 0.0
2018-Feb-12 15:54N 47°49' W 004°23'1 3.4
2018-Feb-12 15:30N 47°48' W 004°24'5 8.1
2018-Feb-12 14:51N 47°43' W 004°22'3 8.4
2018-Feb-12 14:30N 47°40' W 004°22'4 8.4
2018-Feb-12 14:00N 47°36' W 004°21'4 0.4
2018-Feb-12 03:15N 47°40' W 004°21'3 8.5
2018-Feb-12 02:54N 47°43' W 004°22'4 8.7
2018-Feb-12 02:28N 47°47' W 004°24'2 4.6
2018-Feb-12 01:59N 47°49' W 004°23'0 0.0
2018-Feb-12 01:30N 47°49' W 004°23'0 0.0
2018-Feb-12 01:00N 47°49' W 004°23'0 0.0
2018-Feb-12 00:30N 47°49' W 004°23'0 0.0
2018-Feb-11 23:59N 47°49' W 004°23'0 0.0
2018-Feb-11 23:25N 47°49' W 004°23'0 0.0
2018-Feb-11 23:00N 47°49' W 004°23'0 0.0
2018-Feb-11 22:29N 47°49' W 004°23'0 0.0
2018-Feb-11 21:59N 47°49' W 004°23'0 0.0
2018-Feb-11 21:23N 47°49' W 004°23'0 0.0
2018-Feb-11 20:50N 47°49' W 004°23'0 0.0
2018-Feb-11 20:28N 47°49' W 004°23'0 0.0
2018-Feb-11 19:59N 47°49' W 004°23'0 0.0
2018-Feb-11 19:30N 47°49' W 004°23'0 0.0
2018-Feb-11 18:59N 47°49' W 004°23'0 0.0
2018-Feb-11 18:30N 47°49' W 004°23'0 0.0
2018-Feb-11 17:51N 47°49' W 004°23'0 0.0
2018-Feb-11 17:22N 47°49' W 004°23'0 0.0
2018-Feb-11 16:57N 47°49' W 004°23'0 0.3
2018-Feb-11 16:15N 47°49' W 004°23'0 0.0
2018-Feb-11 16:00N 47°49' W 004°23'3 4.7
2018-Feb-11 15:27N 47°47' W 004°24'4 8.3
2018-Feb-11 14:57N 47°43' W 004°23'5 8.4
2018-Feb-11 14:24N 47°38' W 004°21'4 0.4
2018-Feb-11 03:03N 47°42' W 004°22'1 8.1
2018-Feb-11 02:54N 47°43' W 004°23'3 8.2
2018-Feb-11 02:29N 47°47' W 004°24'2 4.6
2018-Feb-11 02:00N 47°49' W 004°23'0 0.0
2018-Feb-11 01:29N 47°49' W 004°23'0 0.0
2018-Feb-11 01:00N 47°49' W 004°23'0 0.0
2018-Feb-11 00:29N 47°49' W 004°23'0 0.0
2018-Feb-10 23:59N 47°49' W 004°23'0 0.0
2018-Feb-10 23:28N 47°49' W 004°23'0 0.0
2018-Feb-10 22:52N 47°49' W 004°23'0 0.0
2018-Feb-10 22:24N 47°49' W 004°23'0 0.0
2018-Feb-10 21:51N 47°49' W 004°23'0 0.0
2018-Feb-10 21:28N 47°49' W 004°23'0 0.0
2018-Feb-10 20:56N 47°49' W 004°23'0 0.0
2018-Feb-10 20:27N 47°49' W 004°23'0 0.0
2018-Feb-10 19:57N 47°49' W 004°23'0 0.0
2018-Feb-10 19:28N 47°49' W 004°23'0 0.0
2018-Feb-10 18:58N 47°49' W 004°23'0 0.0
2018-Feb-10 18:29N 47°49' W 004°23'0 0.0
2018-Feb-10 17:56N 47°49' W 004°23'0 0.0
2018-Feb-10 17:24N 47°49' W 004°23'0 0.0
2018-Feb-10 16:55N 47°49' W 004°23'0 0.2
2018-Feb-10 15:58N 47°49' W 004°23'3 6.5
2018-Feb-10 15:30N 47°46' W 004°24'5 8.5
2018-Feb-10 14:57N 47°41' W 004°22'4 8.5
2018-Feb-10 14:26N 47°37' W 004°21'6 0.5
2018-Feb-10 03:21N 47°43' W 004°22'3 8.3
2018-Feb-10 03:00N 47°46' W 004°24'3 4.7
2018-Feb-10 02:19N 47°49' W 004°23'0 0.0
2018-Feb-10 01:54N 47°49' W 004°23'0 0.0
2018-Feb-10 01:25N 47°49' W 004°23'0 0.0
2018-Feb-10 00:59N 47°49' W 004°23'0 0.0
2018-Feb-10 00:29N 47°49' W 004°23'0 0.0
2018-Feb-09 23:54N 47°49' W 004°23'0 0.0
2018-Feb-09 23:30N 47°49' W 004°23'0 0.0
2018-Feb-09 22:59N 47°49' W 004°23'0 0.0
2018-Feb-09 22:45N 47°49' W 004°23'0 0.0
2018-Feb-08 21:30N 47°49' W 004°23'9 1.1
2018-Feb-08 14:00N 47°40' W 004°22'8 0.7
2018-Feb-08 02:01N 47°49' W 004°23'0 0.4
2018-Feb-08 01:30N 47°49' W 004°23'0 0.0
2018-Feb-08 00:54N 47°49' W 004°23'0 0.0
2018-Feb-08 00:30N 47°49' W 004°23'0 0.0
2018-Feb-07 23:51N 47°49' W 004°23'0 0.0
2018-Feb-07 23:27N 47°49' W 004°23'0 0.0
2018-Feb-07 22:59N 47°49' W 004°23'0 0.0
2018-Feb-07 22:25N 47°49' W 004°23'0 0.0
2018-Feb-07 21:59N 47°49' W 004°23'0 0.0
2018-Feb-07 21:28N 47°49' W 004°23'  
Track history (hours):
 
Tides and Currents Weather Stations Pressure Air Temp Water Temp Dewpoint Dewpoint Depression Visibility Wind Speed Wind Dir Waves Ship Positions

F/V Alcor

Last reported at 2018-Feb-17 20:52 UTC. Time now 2018-Feb-17 23:53 UTC.
Position N 47°49' W 004°23'.

Length 18 m.

MMSI: 228263900.

Date/timePositionNaut miles runAvg speedWind from/ knotsBaromVisibWave heightAir tempDewpointWater temp
2018-Feb-17 20:52N 47°49' W 004°23'0 0.0
2018-Feb-17 20:29N 47°49' W 004°23'0 0.0
2018-Feb-17 19:57N 47°49' W 004°23'0 0.0
2018-Feb-17 19:29N 47°49' W 004°23'0 0.0
2018-Feb-17 19:00N 47°49' W 004°23'0 0.0
2018-Feb-17 18:28N 47°49' W 004°23'0 0.0
2018-Feb-17 18:00N 47°49' W 004°23'0 0.0
2018-Feb-17 17:30N 47°49' W 004°23'0 0.0
2018-Feb-17 16:52N 47°49' W 004°23'0 0.0
2018-Feb-17 16:30N 47°49' W 004°23'0 0.0
2018-Feb-17 16:01N 47°49' W 004°23'0 0.0
2018-Feb-17 15:29N 47°49' W 004°23'0 0.0
2018-Feb-17 15:00N 47°49' W 004°23'0 0.0
2018-Feb-17 14:24N 47°49' W 004°23'0 0.0
2018-Feb-17 13:59N 47°49' W 004°23'0 0.0
2018-Feb-17 13:26N 47°49' W 004°23'0 0.0
2018-Feb-17 13:00N 47°49' W 004°23'0 0.0
2018-Feb-17 12:30N 47°49' W 004°23'0 0.0
2018-Feb-17 11:53N 47°49' W 004°23'0 0.0
2018-Feb-17 11:30N 47°49' W 004°23'0 0.0
2018-Feb-17 10:59N 47°49' W 004°23'0 0.0
2018-Feb-17 10:28N 47°49' W 004°23'0 0.0
2018-Feb-17 10:00N 47°49' W 004°23'0 0.0
2018-Feb-17 09:28N 47°49' W 004°23'0 0.0
2018-Feb-17 08:57N 47°49' W 004°23'0 0.0
2018-Feb-17 08:28N 47°49' W 004°23'0 0.0
2018-Feb-17 08:00N 47°49' W 004°23'0 0.0
2018-Feb-17 07:30N 47°49' W 004°23'0 0.0
2018-Feb-17 07:00N 47°49' W 004°23'0 0.0
2018-Feb-17 06:27N 47°49' W 004°23'0 0.0
2018-Feb-17 06:00N 47°49' W 004°23'0 0.0
2018-Feb-17 05:30N 47°49' W 004°23'0 0.0
2018-Feb-17 05:00N 47°49' W 004°23'0 0.0
2018-Feb-17 04:30N 47°49' W 004°23'0 0.0
2018-Feb-17 03:58N 47°49' W 004°23'0 0.0
2018-Feb-17 03:30N 47°49' W 004°23'0 0.0
2018-Feb-17 02:57N 47°49' W 004°23'0 0.0
2018-Feb-17 02:30N 47°49' W 004°23'0 0.0
2018-Feb-17 01:59N 47°49' W 004°23'0 0.0
2018-Feb-17 01:30N 47°49' W 004°23'0 0.0
2018-Feb-17 01:00N 47°49' W 004°23'0 0.0
2018-Feb-17 00:28N 47°49' W 004°23'0 0.0
2018-Feb-16 23:57N 47°49' W 004°23'0 0.0
2018-Feb-16 23:26N 47°49' W 004°23'0 0.0
2018-Feb-16 23:00N 47°49' W 004°23'0 0.0
2018-Feb-16 22:13N 47°49' W 004°23'0 0.0
2018-Feb-16 21:58N 47°49' W 004°23'0 0.0
2018-Feb-16 21:26N 47°49' W 004°23'0 0.0
2018-Feb-16 21:00N 47°49' W 004°23'1 1.4
2018-Feb-16 20:30N 47°49' W 004°24'5 8.6
2018-Feb-16 19:57N 47°44' W 004°23'4 9.4
2018-Feb-16 19:30N 47°40' W 004°22'5 9.3
2018-Feb-16 18:56N 47°34' W 004°20'4 8.5
2018-Feb-16 18:27N 47°31' W 004°18'4 3.9
2018-Feb-16 17:33N 47°27' W 004°17'0 0.2
2018-Feb-16 17:30N 47°27' W 004°17'0 0.3
2018-Feb-16 16:20N 47°27' W 004°18'1 0.2
2018-Feb-16 10:21N 47°27' W 004°16'0 0.1
2018-Feb-16 09:50N 47°27' W 004°16'0 0.1
2018-Feb-16 08:55N 47°27' W 004°16'1 0.6
2018-Feb-16 07:57N 47°27' W 004°16'0 0.4
2018-Feb-16 06:59N 47°27' W 004°15'11 3.5
2018-Feb-16 03:56N 47°37' W 004°20'4 8.3
2018-Feb-16 03:29N 47°41' W 004°22'5 8.2
2018-Feb-16 02:55N 47°45' W 004°24'3 8.0
2018-Feb-16 02:29N 47°48' W 004°24'1 1.9
2018-Feb-16 02:00N 47°49' W 004°23'0 0.0
2018-Feb-16 01:29N 47°49' W 004°23'0 0.0
2018-Feb-16 01:00N 47°49' W 004°23'0 0.0
2018-Feb-16 00:28N 47°49' W 004°23'0 0.0
2018-Feb-15 23:59N 47°49' W 004°23'0 0.0
2018-Feb-15 23:25N 47°49' W 004°23'0 0.0
2018-Feb-15 23:00N 47°49' W 004°23'0 0.0
2018-Feb-15 22:30N 47°49' W 004°23'0 0.0
2018-Feb-15 22:00N 47°49' W 004°23'0 0.0
2018-Feb-15 21:30N 47°49' W 004°23'0 0.0
2018-Feb-15 20:57N 47°49' W 004°23'0 0.0
2018-Feb-15 20:30N 47°49' W 004°23'0 0.0
2018-Feb-15 20:00N 47°49' W 004°23'0 0.0
2018-Feb-15 19:30N 47°49' W 004°23'0 0.0
2018-Feb-15 19:00N 47°49' W 004°23'0 0.0
2018-Feb-15 18:30N 47°49' W 004°23'0 0.0
2018-Feb-15 17:57N 47°49' W 004°23'0 0.0
2018-Feb-15 17:30N 47°49' W 004°23'0 0.0
2018-Feb-15 16:57N 47°49' W 004°23'0 0.0
2018-Feb-15 16:30N 47°49' W 004°23'0 0.0
2018-Feb-15 15:58N 47°49' W 004°23'0 0.3
2018-Feb-15 15:23N 47°49' W 004°23'2 6.2
2018-Feb-15 15:00N 47°47' W 004°24'4 8.5
2018-Feb-15 14:28N 47°42' W 004°23'4 8.5
2018-Feb-15 13:57N 47°38' W 004°22'6 8.5
2018-Feb-15 13:14N 47°32' W 004°20'5 0.9
2018-Feb-15 07:19N 47°27' W 004°16'11 3.1
2018-Feb-15 03:46N 47°38' W 004°19'4 8.5
2018-Feb-15 03:18N 47°42' W 004°21'4 8.4
2018-Feb-15 02:52N 47°45' W 004°23'3 8.3
2018-Feb-15 02:30N 47°48' W 004°24'1 1.9
2018-Feb-15 02:00N 47°49' W 004°23'0 0.0
2018-Feb-15 01:30N 47°49' W 004°23'0 0.0
2018-Feb-15 00:58N 47°49' W 004°23'0 0.0
2018-Feb-15 00:28N 47°49' W 004°23'0 0.0
2018-Feb-15 00:00N 47°49' W 004°23'0 0.0
2018-Feb-14 23:29N 47°49' W 004°23'0 0.0
2018-Feb-14 22:58N 47°49' W 004°23'0 0.0
2018-Feb-14 22:30N 47°49' W 004°23'0 0.0
2018-Feb-14 21:57N 47°49' W 004°23'0 0.0
2018-Feb-14 21:23N 47°49' W 004°23'0 0.0
2018-Feb-14 21:00N 47°49' W 004°23'0 0.0
2018-Feb-14 20:29N 47°49' W 004°23'0 0.0
2018-Feb-14 19:59N 47°49' W 004°23'0 0.0
2018-Feb-14 19:25N 47°49' W 004°23'0 0.0
2018-Feb-14 19:00N 47°49' W 004°23'0 0.0
2018-Feb-14 18:20N 47°49' W 004°23'0 0.0
2018-Feb-14 17:58N 47°49' W 004°23'0 0.0
2018-Feb-14 17:30N 47°49' W 004°23'0 0.0
2018-Feb-14 17:00N 47°49' W 004°23'0 0.0
2018-Feb-14 16:24N 47°49' W 004°23'0 0.5
2018-Feb-14 15:59N 47°49' W 004°23'3 4.3
2018-Feb-14 15:23N 47°46' W 004°24'4 9.3
2018-Feb-14 14:55N 47°42' W 004°21'4 9.4
2018-Feb-14 14:26N 47°38' W 004°19'5 0.5
2018-Feb-14 02:52N 47°43' W 004°22'3 8.3
2018-Feb-14 02:29N 47°46' W 004°24'3 4.7
2018-Feb-14 01:54N 47°49' W 004°23'0 0.0
2018-Feb-14 01:28N 47°49' W 004°23'0 0.0
2018-Feb-14 01:00N 47°49' W 004°23'0 0.0
2018-Feb-14 00:30N 47°49' W 004°23'0 0.0
2018-Feb-13 23:59N 47°49' W 004°23'0 0.0
2018-Feb-13 23:25N 47°49' W 004°23'0 0.0
2018-Feb-13 22:58N 47°49' W 004°23'0 0.0
2018-Feb-13 22:29N 47°49' W 004°23'0 0.0
2018-Feb-13 21:58N 47°49' W 004°23'0 0.0
2018-Feb-13 21:29N 47°49' W 004°23'0 0.0
2018-Feb-13 20:59N 47°49' W 004°23'0 0.0
2018-Feb-13 20:30N 47°49' W 004°23'0 0.0
2018-Feb-13 19:57N 47°49' W 004°23'0 0.0
2018-Feb-13 19:25N 47°49' W 004°23'0 0.0
2018-Feb-13 18:54N 47°49' W 004°23'0 0.0
2018-Feb-13 18:30N 47°49' W 004°23'0 0.0
2018-Feb-13 18:00N 47°49' W 004°23'3 5.2
2018-Feb-13 17:29N 47°46' W 004°23'4 8.3
2018-Feb-13 16:59N 47°42' W 004°22'5 8.3
2018-Feb-13 16:24N 47°37' W 004°20'4 1.0
2018-Feb-13 12:43N 47°41' W 004°22'4 8.4
2018-Feb-13 12:17N 47°44' W 004°24'3 8.2
2018-Feb-13 11:56N 47°47' W 004°24'2 4.0
2018-Feb-13 11:25N 47°49' W 004°23'0 0.0
2018-Feb-13 11:00N 47°49' W 004°23'0 0.0
2018-Feb-13 10:18N 47°49' W 004°23'0 0.0
2018-Feb-13 10:00N 47°49' W 004°23'0 0.0
2018-Feb-13 09:17N 47°49' W 004°23'0 0.0
2018-Feb-13 08:56N 47°49' W 004°23'0 0.0
2018-Feb-13 08:29N 47°49' W 004°23'0 0.0
2018-Feb-13 07:51N 47°49' W 004°23'0 0.0
2018-Feb-13 07:22N 47°49' W 004°23'0 0.0
2018-Feb-13 06:58N 47°49' W 004°23'0 0.0
2018-Feb-13 06:29N 47°49' W 004°23'0 0.0
2018-Feb-13 06:00N 47°49' W 004°23'0 0.0
2018-Feb-13 05:28N 47°49' W 004°23'0 0.0
2018-Feb-13 04:57N 47°49' W 004°23'0 0.0
2018-Feb-13 03:49N 47°49' W 004°23'0 0.0
2018-Feb-13 03:29N 47°49' W 004°23'0 0.0
2018-Feb-13 03:00N 47°49' W 004°23'0 0.0
2018-Feb-13 02:26N 47°49' W 004°23'0 0.0
2018-Feb-13 01:56N 47°49' W 004°23'0 0.0
2018-Feb-13 01:30N 47°49' W 004°23'0 0.0
2018-Feb-13 00:57N 47°49' W 004°23'0 0.0
2018-Feb-13 00:28N 47°49' W 004°23'0 0.0
2018-Feb-12 23:55N 47°49' W 004°23'0 0.0
2018-Feb-12 23:30N 47°49' W 004°23'0 0.0
2018-Feb-12 22:52N 47°49' W 004°23'0 0.0
2018-Feb-12 22:30N 47°49' W 004°23'0 0.0
2018-Feb-12 21:54N 47°49' W 004°23'0 0.0
2018-Feb-12 21:30N 47°49' W 004°23'0 0.0
2018-Feb-12 19:48N 47°49' W 004°23'0 0.0
2018-Feb-12 19:28N 47°49' W 004°23'0 0.0
2018-Feb-12 18:55N 47°49' W 004°23'0 0.0
2018-Feb-12 18:18N 47°49' W 004°23'0 0.0
2018-Feb-12 17:58N 47°49' W 004°23'0 0.0
2018-Feb-12 17:26N 47°49' W 004°23'0 0.0
2018-Feb-12 16:57N 47°49' W 004°23'0 0.1
2018-Feb-12 16:27N 47°49' W 004°23'0 0.0
2018-Feb-12 15:54N 47°49' W 004°23'1 3.4
2018-Feb-12 15:30N 47°48' W 004°24'5 8.1
2018-Feb-12 14:51N 47°43' W 004°22'3 8.4
2018-Feb-12 14:30N 47°40' W 004°22'4 8.4
2018-Feb-12 14:00N 47°36' W 004°21'4 0.4
2018-Feb-12 03:15N 47°40' W 004°21'3 8.5
2018-Feb-12 02:54N 47°43' W 004°22'4 8.7
2018-Feb-12 02:28N 47°47' W 004°24'2 4.6
2018-Feb-12 01:59N 47°49' W 004°23'0 0.0
2018-Feb-12 01:30N 47°49' W 004°23'0 0.0
2018-Feb-12 01:00N 47°49' W 004°23'0 0.0
2018-Feb-12 00:30N 47°49' W 004°23'0 0.0
2018-Feb-11 23:59N 47°49' W 004°23'0 0.0
2018-Feb-11 23:25N 47°49' W 004°23'0 0.0
2018-Feb-11 23:00N 47°49' W 004°23'0 0.0
2018-Feb-11 22:29N 47°49' W 004°23'0 0.0
2018-Feb-11 21:59N 47°49' W 004°23'0 0.0
2018-Feb-11 21:23N 47°49' W 004°23'0 0.0
2018-Feb-11 20:50N 47°49' W 004°23'0 0.0
2018-Feb-11 20:28N 47°49' W 004°23'0 0.0
2018-Feb-11 19:59N 47°49' W 004°23'0 0.0
2018-Feb-11 19:30N 47°49' W 004°23'0 0.0
2018-Feb-11 18:59N 47°49' W 004°23'0 0.0
2018-Feb-11 18:30N 47°49' W 004°23'0 0.0
2018-Feb-11 17:51N 47°49' W 004°23'0 0.0
2018-Feb-11 17:22N 47°49' W 004°23'0 0.0
2018-Feb-11 16:57N 47°49' W 004°23'0 0.3
2018-Feb-11 16:15N 47°49' W 004°23'0 0.0
2018-Feb-11 16:00N 47°49' W 004°23'3 4.7
2018-Feb-11 15:27N 47°47' W 004°24'4 8.3
2018-Feb-11 14:57N 47°43' W 004°23'5 8.4
2018-Feb-11 14:24N 47°38' W 004°21'4 0.4
2018-Feb-11 03:03N 47°42' W 004°22'1 8.1
2018-Feb-11 02:54N 47°43' W 004°23'3 8.2
2018-Feb-11 02:29N 47°47' W 004°24'2 4.6
2018-Feb-11 02:00N 47°49' W 004°23'0 0.0
2018-Feb-11 01:29N 47°49' W 004°23'0 0.0
2018-Feb-11 01:00N 47°49' W 004°23'0 0.0
2018-Feb-11 00:29N 47°49' W 004°23'0 0.0
2018-Feb-10 23:59N 47°49' W 004°23'0 0.0
2018-Feb-10 23:28N 47°49' W 004°23'0 0.0
2018-Feb-10 22:52N 47°49' W 004°23'0 0.0
2018-Feb-10 22:24N 47°49' W 004°23'0 0.0
2018-Feb-10 21:51N 47°49' W 004°23'0 0.0
2018-Feb-10 21:28N 47°49' W 004°23'0 0.0
2018-Feb-10 20:56N 47°49' W 004°23'0 0.0
2018-Feb-10 20:27N 47°49' W 004°23'0 0.0
2018-Feb-10 19:57N 47°49' W 004°23'0 0.0
2018-Feb-10 19:28N 47°49' W 004°23'0 0.0
2018-Feb-10 18:58N 47°49' W 004°23'0 0.0
2018-Feb-10 18:29N 47°49' W 004°23'0 0.0
2018-Feb-10 17:56N 47°49' W 004°23'0 0.0
2018-Feb-10 17:24N 47°49' W 004°23'0 0.0
2018-Feb-10 16:55N 47°49' W 004°23'0 0.2
2018-Feb-10 15:58N 47°49' W 004°23'3 6.5
2018-Feb-10 15:30N 47°46' W 004°24'5 8.5
2018-Feb-10 14:57N 47°41' W 004°22'4 8.5
2018-Feb-10 14:26N 47°37' W 004°21'6 0.5
2018-Feb-10 03:21N 47°43' W 004°22'3 8.3
2018-Feb-10 03:00N 47°46' W 004°24'3 4.7
2018-Feb-10 02:19N 47°49' W 004°23'0 0.0
2018-Feb-10 01:54N 47°49' W 004°23'0 0.0
2018-Feb-10 01:25N 47°49' W 004°23'0 0.0
2018-Feb-10 00:59N 47°49' W 004°23'0 0.0
2018-Feb-10 00:29N 47°49' W 004°23'0 0.0
2018-Feb-09 23:54N 47°49' W 004°23'0 0.0
2018-Feb-09 23:30N 47°49' W 004°23'0 0.0
2018-Feb-09 22:59N 47°49' W 004°23'0 0.0
2018-Feb-09 22:45N 47°49' W 004°23'0 0.0
2018-Feb-08 21:30N 47°49' W 004°23'9 1.1
2018-Feb-08 14:00N 47°40' W 004°22'8 0.7
2018-Feb-08 02:01N 47°49' W 004°23'0 0.4
2018-Feb-08 01:30N 47°49' W 004°23'0 0.0
2018-Feb-08 00:54N 47°49' W 004°23'0 0.0
2018-Feb-08 00:30N 47°49' W 004°23'0 0.0
2018-Feb-07 23:51N 47°49' W 004°23'0 0.0
2018-Feb-07 23:27N 47°49' W 004°23'0 0.0
2018-Feb-07 22:59N 47°49' W 004°23'0 0.0
2018-Feb-07 22:25N 47°49' W 004°23'0 0.0
2018-Feb-07 21:59N 47°49' W 004°23'0 0.0
2018-Feb-07 21:28N 47°49' W 004°23'  

Dump ship's entire track history